createdAt,value
2023-04-08T00:00:54.708Z,68.47
2023-04-08T00:03:22.623Z,68.37
2023-04-08T00:05:50.085Z,68.50
2023-04-08T00:08:17.434Z,67.72
2023-04-08T00:10:45.426Z,67.85
2023-04-08T00:13:13.325Z,67.43
2023-04-08T00:15:41.388Z,68.47
2023-04-08T00:18:09.152Z,69.60
2023-04-08T00:20:37.580Z,70.43
2023-04-08T00:23:04.991Z,68.95
2023-04-08T00:25:32.726Z,69.04
2023-04-08T00:28:00.414Z,69.36
2023-04-08T00:30:28.599Z,69.85
2023-04-08T00:32:56.309Z,70.63
2023-04-08T00:35:24.713Z,69.86
2023-04-08T00:37:52.162Z,71.35
2023-04-08T00:40:19.832Z,71.36
2023-04-08T00:42:47.262Z,72.12
2023-04-08T00:45:14.662Z,72.53
2023-04-08T00:47:42.466Z,72.06
2023-04-08T00:50:10.908Z,71.94
2023-04-08T00:52:38.296Z,72.16
2023-04-08T00:55:06.610Z,72.47
2023-04-08T00:57:34.235Z,71.12
2023-04-08T01:00:01.696Z,71.70
2023-04-08T01:03:00.540Z,72.12
2023-04-08T01:05:39.572Z,71.10
2023-04-08T01:08:08.740Z,72.13
2023-04-08T01:10:37.887Z,73.11
2023-04-08T01:13:10.036Z,71.87
2023-04-08T01:15:39.255Z,73.09
2023-04-08T01:18:09.378Z,70.82
2023-04-08T01:20:37.386Z,70.94
2023-04-08T01:23:36.323Z,70.85
2023-04-08T01:26:03.791Z,70.24
2023-04-08T01:28:31.692Z,71.19
2023-04-08T01:31:01.080Z,71.72
2023-04-08T01:33:29.048Z,71.87
2023-04-08T01:35:57.865Z,72.76
2023-04-08T01:38:29.084Z,71.52
2023-04-08T01:40:57.255Z,71.34
2023-04-08T01:43:24.767Z,72.13
2023-04-08T01:45:54.616Z,72.01
2023-04-08T01:48:22.518Z,71.75
2023-04-08T01:50:51.347Z,71.35
2023-04-08T01:53:18.801Z,71.60
2023-04-08T01:55:47.063Z,71.84
2023-04-08T01:58:19.283Z,73.52
2023-04-08T02:00:47.253Z,73.34
2023-04-08T02:03:18.110Z,72.81
2023-04-08T02:05:46.905Z,73.49
2023-04-08T02:08:14.558Z,72.41
2023-04-08T02:10:41.988Z,71.13
2023-04-08T02:13:09.451Z,71.48
2023-04-08T02:15:38.986Z,73.01
2023-04-08T02:18:13.574Z,71.95
2023-04-08T02:20:45.946Z,71.59
2023-04-08T02:23:19.784Z,70.95
2023-04-08T02:25:48.174Z,72.29
2023-04-08T02:28:18.522Z,72.51
2023-04-08T02:30:50.411Z,73.55
2023-04-08T02:33:20.437Z,72.42
2023-04-08T02:35:49.845Z,72.84
2023-04-08T02:38:17.399Z,72.67
2023-04-08T02:40:45.146Z,73.40
2023-04-08T02:43:12.673Z,72.97
2023-04-08T02:45:44.047Z,72.05
2023-04-08T02:48:11.838Z,73.71
2023-04-08T02:50:40.078Z,72.48
2023-04-08T02:53:08.867Z,72.26
2023-04-08T02:55:36.920Z,71.70
2023-04-08T02:58:04.357Z,72.36
2023-04-08T03:00:31.850Z,72.95
2023-04-08T03:02:59.747Z,72.31
2023-04-08T03:05:27.902Z,71.03
2023-04-08T03:07:55.453Z,71.36
2023-04-08T03:10:23.253Z,72.61
2023-04-08T03:12:50.672Z,72.51
2023-04-08T03:15:18.272Z,71.86
2023-04-08T03:17:46.152Z,72.29
2023-04-08T03:20:13.612Z,71.20
2023-04-08T03:22:41.086Z,70.30
2023-04-08T03:25:09.233Z,71.67
2023-04-08T03:27:36.598Z,72.55
2023-04-08T03:30:04.522Z,73.51
2023-04-08T03:32:33.077Z,72.55
2023-04-08T03:35:00.590Z,73.24
2023-04-08T03:37:27.965Z,72.34
2023-04-08T03:39:56.387Z,72.15
2023-04-08T03:42:23.899Z,71.99
2023-04-08T03:44:51.367Z,71.51
2023-04-08T03:47:19.787Z,71.93
2023-04-08T03:49:47.175Z,71.89
2023-04-08T03:52:14.558Z,71.29
2023-04-08T03:54:42.199Z,71.53
2023-04-08T03:57:09.580Z,71.11
2023-04-08T03:59:37.525Z,71.50
2023-04-08T04:02:05.606Z,71.42
2023-04-08T04:04:33.927Z,71.36
2023-04-08T04:07:01.341Z,72.14
2023-04-08T04:09:28.744Z,71.14
2023-04-08T04:11:56.357Z,72.07
2023-04-08T04:14:23.721Z,72.35
2023-04-08T04:16:51.101Z,72.85
2023-04-08T04:19:18.825Z,72.67
2023-04-08T04:22:05.880Z,72.51
2023-04-08T04:24:33.519Z,72.50
2023-04-08T04:27:01.975Z,72.93
2023-04-08T04:29:31.637Z,73.36
2023-04-08T04:31:59.298Z,73.71
2023-04-08T04:34:26.651Z,74.09
2023-04-08T04:36:54.019Z,75.03
2023-04-08T04:39:21.699Z,74.63
2023-04-08T04:41:49.377Z,75.30
2023-04-08T04:44:16.861Z,76.10
2023-04-08T04:46:44.498Z,76.10
2023-04-08T04:49:11.982Z,75.38
2023-04-08T04:51:39.876Z,75.73
2023-04-08T04:54:07.533Z,76.53
2023-04-08T04:56:34.985Z,76.04
2023-04-08T04:59:02.401Z,75.17
2023-04-08T05:01:30.107Z,75.42
2023-04-08T05:03:58.030Z,74.19
2023-04-08T05:06:26.459Z,74.78
2023-04-08T05:08:54.070Z,74.38
2023-04-08T05:11:24.225Z,74.76
2023-04-08T05:13:51.600Z,74.17
2023-04-08T05:16:19.309Z,75.20
2023-04-08T05:18:46.765Z,74.16
2023-04-08T05:21:14.145Z,75.69
2023-04-08T05:23:41.787Z,74.64
2023-04-08T05:26:09.198Z,75.20
2023-04-08T05:28:36.618Z,75.95
2023-04-08T05:31:04.529Z,75.38
2023-04-08T05:33:32.071Z,75.43
2023-04-08T05:35:59.532Z,76.93
2023-04-08T05:38:27.201Z,75.83
2023-04-08T05:40:54.581Z,74.83
2023-04-08T05:43:21.971Z,74.47
2023-04-08T05:45:49.613Z,74.52
2023-04-08T05:48:16.969Z,73.63
2023-04-08T05:50:44.362Z,72.87
2023-04-08T05:53:12.039Z,73.07
2023-04-08T05:55:39.521Z,72.58
2023-04-08T05:58:08.127Z,72.36
2023-04-08T06:00:35.818Z,75.12
2023-04-08T06:03:03.713Z,74.75
2023-04-08T06:05:31.620Z,74.41
2023-04-08T06:07:59.195Z,74.79
2023-04-08T06:10:26.854Z,73.36
2023-04-08T06:12:54.263Z,73.57
2023-04-08T06:15:22.197Z,73.49
2023-04-08T06:17:49.900Z,74.63
2023-04-08T06:20:17.318Z,74.23
2023-04-08T06:22:44.718Z,74.18
2023-04-08T06:25:12.477Z,75.24
2023-04-08T06:27:39.844Z,75.35
2023-04-08T06:30:08.038Z,75.78
2023-04-08T06:32:35.742Z,75.88
2023-04-08T06:35:03.301Z,75.44
2023-04-08T06:37:30.755Z,75.89
2023-04-08T06:39:58.419Z,76.38
2023-04-08T06:42:25.848Z,76.50
2023-04-08T06:44:53.640Z,76.87
2023-04-08T06:47:21.288Z,77.50
2023-04-08T06:49:48.662Z,76.65
2023-04-08T06:52:16.047Z,76.79
2023-04-08T06:54:43.834Z,75.60
2023-04-08T06:57:11.752Z,75.06
2023-04-08T06:59:39.139Z,75.45
2023-04-08T07:02:07.193Z,75.51
2023-04-08T07:04:34.747Z,76.91
2023-04-08T07:07:02.120Z,76.72
2023-04-08T07:09:29.781Z,77.87
2023-04-08T07:11:57.689Z,76.68
2023-04-08T07:14:25.129Z,76.47
2023-04-08T07:16:52.878Z,76.15
2023-04-08T07:19:21.029Z,76.47
2023-04-08T07:21:48.588Z,76.57
2023-04-08T07:24:16.378Z,77.29
2023-04-08T07:26:43.736Z,76.85
2023-04-08T07:29:11.216Z,76.34
2023-04-08T07:31:38.878Z,77.30
2023-04-08T07:34:06.233Z,76.67
2023-04-08T07:36:33.635Z,76.22
2023-04-08T07:39:01.365Z,76.06
2023-04-08T07:41:28.765Z,75.98
2023-04-08T07:43:56.245Z,75.23
2023-04-08T07:46:23.941Z,75.14
2023-04-08T07:48:52.125Z,74.88
2023-04-08T07:51:20.190Z,73.54
2023-04-08T07:53:48.813Z,75.04
2023-04-08T07:56:18.259Z,76.40
2023-04-08T07:58:46.885Z,75.37
2023-04-08T08:01:19.904Z,74.55
2023-04-08T08:03:49.182Z,75.15
2023-04-08T08:06:16.944Z,73.74
2023-04-08T08:08:44.627Z,74.97
2023-04-08T08:11:12.283Z,75.68
2023-04-08T08:13:39.720Z,75.95
2023-04-08T08:16:09.197Z,76.67
2023-04-08T08:18:37.724Z,75.48
2023-04-08T08:21:06.351Z,75.11
2023-04-08T08:23:33.765Z,74.23
2023-04-08T08:26:02.450Z,76.14
2023-04-08T08:28:29.843Z,74.62
2023-04-08T08:30:59.658Z,74.34
2023-04-08T08:33:27.394Z,74.13
2023-04-08T08:35:55.641Z,76.14
2023-04-08T08:38:23.069Z,74.40
2023-04-08T08:40:58.331Z,74.15
2023-04-08T08:43:26.657Z,75.67
2023-04-08T08:45:54.659Z,75.45
2023-04-08T08:48:22.035Z,75.67
2023-04-08T08:50:49.459Z,74.97
2023-04-08T08:53:17.295Z,74.55
2023-04-08T08:56:13.679Z,75.70
2023-04-08T08:58:32.771Z,75.00
2023-04-08T09:01:00.303Z,75.89
2023-04-08T09:03:28.745Z,75.36
2023-04-08T09:05:58.521Z,75.03
2023-04-08T09:08:37.145Z,74.89
2023-04-08T09:11:11.486Z,74.47
2023-04-08T09:13:38.892Z,73.46
2023-04-08T09:16:18.228Z,73.98
2023-04-08T09:18:47.453Z,75.08
2023-04-08T09:21:17.050Z,73.21
2023-04-08T09:23:46.360Z,73.79
2023-04-08T09:26:16.425Z,74.79
2023-04-08T09:28:57.756Z,74.32
2023-04-08T09:31:27.858Z,74.90
2023-04-08T09:33:59.541Z,73.76
2023-04-08T09:36:27.578Z,75.38
2023-04-08T09:38:56.162Z,75.58
2023-04-08T09:41:25.012Z,75.73
2023-04-08T09:43:56.679Z,76.41
2023-04-08T09:46:33.636Z,75.67
2023-04-08T09:49:01.903Z,75.55
2023-04-08T09:51:35.068Z,75.65
2023-04-08T09:54:04.078Z,75.01
2023-04-08T09:56:38.437Z,74.93
2023-04-08T09:59:12.443Z,74.97
2023-04-08T10:01:48.859Z,75.42
2023-04-08T10:04:19.379Z,75.08
2023-04-08T10:06:54.796Z,74.75
2023-04-08T10:09:23.004Z,74.93
2023-04-08T10:11:50.944Z,74.18
2023-04-08T10:14:18.310Z,73.36
2023-04-08T10:16:46.095Z,73.42
2023-04-08T10:19:42.213Z,73.03
2023-04-08T10:22:48.936Z,73.61
2023-04-08T10:25:19.516Z,73.59
2023-04-08T10:27:47.778Z,74.09
2023-04-08T10:30:33.380Z,74.43
2023-04-08T10:33:01.511Z,74.52
2023-04-08T10:35:33.153Z,74.00
2023-04-08T10:38:02.166Z,74.49
2023-04-08T10:40:39.892Z,74.99
2023-04-08T10:43:07.780Z,73.02
2023-04-08T10:45:35.254Z,73.73
2023-04-08T10:48:31.983Z,73.97
2023-04-08T10:51:06.682Z,74.43
2023-04-08T10:53:42.047Z,75.22
2023-04-08T10:56:15.395Z,75.22
2023-04-08T10:58:50.825Z,75.22
2023-04-08T11:01:19.134Z,74.24
2023-04-08T11:03:46.764Z,74.14
2023-04-08T11:06:14.823Z,73.95
2023-04-08T11:08:42.523Z,74.04
2023-04-08T11:11:11.148Z,74.33
2023-04-08T11:13:52.708Z,73.65
2023-04-08T11:16:22.791Z,73.21
2023-04-08T11:18:51.185Z,74.35
2023-04-08T11:21:19.675Z,74.66
2023-04-08T11:23:51.040Z,73.99
2023-04-08T11:26:22.763Z,74.00
2023-04-08T11:28:52.045Z,73.76
2023-04-08T11:31:23.489Z,72.45
2023-04-08T11:36:22.062Z,72.80
2023-04-08T11:38:49.568Z,72.33
2023-04-08T11:41:17.649Z,71.39
2023-04-08T11:43:52.619Z,71.50
2023-04-08T11:46:20.672Z,71.44
2023-04-08T11:49:01.722Z,71.14
2023-04-08T11:51:29.489Z,70.92
2023-04-08T11:53:57.459Z,71.15
2023-04-08T11:56:25.200Z,71.18
2023-04-08T11:58:53.296Z,71.60
2023-04-08T12:01:21.580Z,72.53
2023-04-08T12:03:57.282Z,72.27
2023-04-08T12:06:27.238Z,72.92
2023-04-08T12:08:55.909Z,72.62
2023-04-08T12:11:24.434Z,73.18
2023-04-08T12:13:52.797Z,71.86
2023-04-08T12:16:23.598Z,71.51
2023-04-08T12:18:51.063Z,71.94
2023-04-08T12:21:18.492Z,71.80
2023-04-08T12:23:46.390Z,70.74
2023-04-08T12:26:14.597Z,71.27
2023-04-08T12:28:41.998Z,70.45
2023-04-08T12:31:09.706Z,70.23
2023-04-08T12:33:37.774Z,70.43
2023-04-08T12:36:05.314Z,71.86
2023-04-08T12:38:33.574Z,71.82
2023-04-08T12:41:01.025Z,71.61
2023-04-08T12:43:28.422Z,72.47
2023-04-08T12:45:56.629Z,71.54
2023-04-08T12:48:24.001Z,71.81
2023-04-08T12:50:51.357Z,71.59
2023-04-08T12:53:19.241Z,70.68
2023-04-08T12:55:48.024Z,70.76
2023-04-08T12:58:16.942Z,70.81
2023-04-08T13:00:46.770Z,69.58
2023-04-08T13:03:17.454Z,69.87
2023-04-08T13:05:45.265Z,71.02
2023-04-08T13:08:12.665Z,70.66
2023-04-08T13:10:40.378Z,69.49
2023-04-08T13:13:08.169Z,68.50
2023-04-08T13:15:35.606Z,68.45
2023-04-08T13:18:03.088Z,69.24
2023-04-08T13:20:30.911Z,69.46
2023-04-08T13:22:58.298Z,69.96
2023-04-08T13:25:25.729Z,70.26
2023-04-08T13:27:53.409Z,69.79
2023-04-08T13:30:20.867Z,70.98
2023-04-08T13:32:48.269Z,69.70
2023-04-08T13:35:16.229Z,70.58
2023-04-08T13:37:43.914Z,70.90
2023-04-08T13:40:12.367Z,71.17
2023-04-08T13:42:40.053Z,68.98
2023-04-08T13:45:07.889Z,69.85
2023-04-08T13:47:37.781Z,70.97
2023-04-08T13:50:11.381Z,70.11
2023-04-08T13:52:38.733Z,69.17
2023-04-08T13:55:06.905Z,69.99
2023-04-08T13:57:35.253Z,71.00
2023-04-08T14:00:03.562Z,69.48
2023-04-08T14:02:37.969Z,69.90
2023-04-08T14:05:06.385Z,70.42
2023-04-08T14:07:33.818Z,70.66
2023-04-08T14:10:01.477Z,69.98
2023-04-08T14:12:29.146Z,68.38
2023-04-08T14:14:56.549Z,68.09
2023-04-08T14:17:24.013Z,66.82
2023-04-08T14:19:51.727Z,68.38
2023-04-08T14:22:19.126Z,67.00
2023-04-08T14:24:46.637Z,68.48
2023-04-08T14:27:14.299Z,67.42
2023-04-08T14:29:44.552Z,67.57
2023-04-08T14:32:12.441Z,69.14
2023-04-08T14:34:40.169Z,67.56
2023-04-08T14:37:08.121Z,68.02
2023-04-08T14:39:35.897Z,68.14
2023-04-08T14:42:03.662Z,67.48
2023-04-08T14:44:31.071Z,68.02
2023-04-08T14:46:58.700Z,68.79
2023-04-08T14:49:26.404Z,68.27
2023-04-08T14:51:53.820Z,68.94
2023-04-08T14:54:21.284Z,67.72
2023-04-08T14:56:48.933Z,67.54
2023-04-08T14:59:16.397Z,68.83
2023-04-08T15:01:45.071Z,67.48
2023-04-08T15:04:12.895Z,68.09
2023-04-08T15:06:40.521Z,68.00
2023-04-08T15:09:07.934Z,68.03
2023-04-08T15:11:35.683Z,68.27
2023-04-08T15:14:03.085Z,67.93
2023-04-08T15:16:30.553Z,68.90
2023-04-08T15:19:00.370Z,68.89
2023-04-08T15:21:27.775Z,68.42
2023-04-08T15:23:55.302Z,68.46
2023-04-08T15:26:23.073Z,68.97
2023-04-08T15:28:52.645Z,68.17
2023-04-08T15:31:20.352Z,68.72
2023-04-08T15:33:48.833Z,68.75
2023-04-08T15:36:19.873Z,69.94
2023-04-08T15:38:47.909Z,70.66
2023-04-08T15:41:19.223Z,71.25
2023-04-08T15:43:46.921Z,71.95
2023-04-08T15:46:19.069Z,71.94
2023-04-08T15:48:47.274Z,71.53
2023-04-08T15:51:14.938Z,70.22
2023-04-08T15:53:43.157Z,69.48
2023-04-08T15:56:16.220Z,67.25
2023-04-08T15:58:45.058Z,67.40
2023-04-08T16:01:12.911Z,68.41
2023-04-08T16:03:41.077Z,69.30
2023-04-08T16:06:09.013Z,68.17
2023-04-08T16:08:37.160Z,67.18
2023-04-08T16:11:06.592Z,67.98
2023-04-08T16:13:34.239Z,67.29
2023-04-08T16:16:02.481Z,67.93
2023-04-08T16:18:30.617Z,68.58
2023-04-08T16:20:58.045Z,68.76
2023-04-08T16:23:25.474Z,69.91
2023-04-08T16:25:53.155Z,69.64
2023-04-08T16:28:22.112Z,68.75
2023-04-08T16:30:49.550Z,68.89
2023-04-08T16:33:17.244Z,68.69
2023-04-08T16:35:44.714Z,68.00
2023-04-08T16:38:12.248Z,66.89
2023-04-08T16:40:39.916Z,66.93
2023-04-08T16:43:07.435Z,66.97
2023-04-08T16:45:36.092Z,66.49
2023-04-08T16:48:03.989Z,66.73
2023-04-08T16:50:31.364Z,66.87
2023-04-08T16:52:58.914Z,66.16
2023-04-08T16:55:26.658Z,66.24
2023-04-08T16:57:54.650Z,67.43
2023-04-08T17:00:22.412Z,66.47
2023-04-08T17:02:50.707Z,66.39
2023-04-08T17:05:18.317Z,66.11
2023-04-08T17:07:45.933Z,66.44
2023-04-08T17:10:13.729Z,65.45
2023-04-08T17:12:41.631Z,65.66
2023-04-08T17:15:09.617Z,66.00
2023-04-08T17:17:37.725Z,66.14
2023-04-08T17:20:05.824Z,66.86
2023-04-08T17:22:33.230Z,66.68
2023-04-08T17:25:01.248Z,66.90
2023-04-08T17:27:28.612Z,66.48
2023-04-08T17:29:57.848Z,65.95
2023-04-08T17:32:25.830Z,65.91
2023-04-08T17:34:53.587Z,65.59
2023-04-08T17:37:21.230Z,65.81
2023-04-08T17:39:48.932Z,65.92
2023-04-08T17:42:16.958Z,65.09
2023-04-08T17:44:44.808Z,65.72
2023-04-08T17:47:12.572Z,65.45
2023-04-08T17:49:39.950Z,65.01
2023-04-08T17:52:07.386Z,65.20
2023-04-08T17:54:35.007Z,65.95
2023-04-08T17:57:03.120Z,65.33
2023-04-08T17:59:30.776Z,64.69
2023-04-08T18:01:58.507Z,64.50
2023-04-08T18:04:26.321Z,64.64
2023-04-08T18:06:53.728Z,64.55
2023-04-08T18:09:21.178Z,64.23
2023-04-08T18:11:48.830Z,64.81
2023-04-08T18:14:16.629Z,64.89
2023-04-08T18:16:45.426Z,64.08
2023-04-08T18:19:13.399Z,63.81
2023-04-08T18:21:40.798Z,64.42
2023-04-08T18:24:09.394Z,64.67
2023-04-08T18:26:37.128Z,65.48
2023-04-08T18:29:04.474Z,64.90
2023-04-08T18:31:31.836Z,65.35
2023-04-08T18:33:59.550Z,64.87
2023-04-08T18:36:27.390Z,65.03
2023-04-08T18:38:54.805Z,64.97
2023-04-08T18:41:24.964Z,65.24
2023-04-08T18:43:52.587Z,64.81
2023-04-08T18:46:20.527Z,63.75
2023-04-08T18:48:49.167Z,64.26
2023-04-08T18:51:19.376Z,64.06
2023-04-08T18:53:46.966Z,63.76
2023-04-08T18:56:18.650Z,63.38
2023-04-08T18:58:47.092Z,64.00
2023-04-08T19:01:14.862Z,64.17
2023-04-08T19:03:47.451Z,64.47
2023-04-08T19:06:17.367Z,64.46
2023-04-08T19:08:46.520Z,63.74
2023-04-08T19:11:15.933Z,63.88
2023-04-08T19:13:43.421Z,63.84
2023-04-08T19:16:11.270Z,63.09
2023-04-08T19:18:38.957Z,63.37
2023-04-08T19:21:06.336Z,63.29
2023-04-08T19:23:33.697Z,63.23
2023-04-08T19:26:05.239Z,63.05
2023-04-08T19:28:33.460Z,63.09
2023-04-08T19:31:02.074Z,62.84
2023-04-08T19:33:29.718Z,63.81
2023-04-08T19:35:57.647Z,63.60
2023-04-08T19:38:25.345Z,63.57
2023-04-08T19:40:52.815Z,63.84
2023-04-08T19:43:20.628Z,63.09
2023-04-08T19:45:53.422Z,63.47
2023-04-08T19:48:21.141Z,62.91
2023-04-08T19:50:50.986Z,63.48
2023-04-08T19:53:19.464Z,63.79
2023-04-08T19:55:47.023Z,64.04
2023-04-08T19:58:14.744Z,64.25
2023-04-08T20:00:42.233Z,64.59
2023-04-08T20:03:10.310Z,63.89
2023-04-08T20:05:37.986Z,64.27
2023-04-08T20:08:05.445Z,63.74
2023-04-08T20:10:33.196Z,63.66
2023-04-08T20:13:00.767Z,63.72
2023-04-08T20:15:28.271Z,63.89
2023-04-08T20:17:56.546Z,64.07
2023-04-08T20:20:24.177Z,64.02
2023-04-08T20:22:51.647Z,64.21
2023-04-08T20:25:19.508Z,64.64
2023-04-08T20:27:46.875Z,64.93
2023-04-08T20:30:14.303Z,63.91
2023-04-08T20:32:42.050Z,64.02
2023-04-08T20:35:09.554Z,64.16
2023-04-08T20:37:37.040Z,64.16
2023-04-08T20:40:05.182Z,64.47
2023-04-08T20:42:33.220Z,63.91
2023-04-08T20:45:00.615Z,63.65
2023-04-08T20:47:28.708Z,64.48
2023-04-08T20:49:56.153Z,64.59
2023-04-08T20:52:23.565Z,64.14
2023-04-08T20:54:51.279Z,64.11
2023-04-08T20:57:18.726Z,64.23
2023-04-08T20:59:46.140Z,64.50
2023-04-08T21:02:14.144Z,64.52
2023-04-08T21:04:41.818Z,64.12
2023-04-08T21:07:09.187Z,64.41
2023-04-08T21:09:36.861Z,64.08
2023-04-08T21:12:04.687Z,64.30
2023-04-08T21:14:32.162Z,64.31
2023-04-08T21:16:59.765Z,63.91
2023-04-08T21:19:27.128Z,64.14
2023-04-08T21:21:54.492Z,64.08
2023-04-08T21:24:22.234Z,63.80
2023-04-08T21:26:49.602Z,63.97
2023-04-08T21:29:16.921Z,64.12
2023-04-08T21:31:44.632Z,63.89
2023-04-08T21:34:13.317Z,63.78
2023-04-08T21:36:40.722Z,63.47
2023-04-08T21:39:08.403Z,63.54
2023-04-08T21:41:35.980Z,63.36
2023-04-08T21:44:04.777Z,63.47
2023-04-08T21:46:32.396Z,63.27
2023-04-08T21:48:59.849Z,63.61
2023-04-08T21:51:27.572Z,63.81
2023-04-08T21:53:55.290Z,63.98
2023-04-08T21:56:24.556Z,63.87
2023-04-08T21:58:52.364Z,64.00
2023-04-08T22:01:20.653Z,63.87
2023-04-08T22:03:48.411Z,63.73
2023-04-08T22:06:25.750Z,63.85
2023-04-08T22:08:59.565Z,63.64
2023-04-08T22:11:27.090Z,63.63
2023-04-08T22:13:54.471Z,63.68
2023-04-08T22:16:22.148Z,63.60
2023-04-08T22:18:49.653Z,63.61
2023-04-08T22:21:17.053Z,63.90
2023-04-08T22:23:45.448Z,63.85
2023-04-08T22:26:13.955Z,63.38
2023-04-08T22:28:43.130Z,63.27
2023-04-08T22:31:12.050Z,63.39
2023-04-08T22:33:39.645Z,63.57
2023-04-08T22:36:07.211Z,63.20
2023-04-08T22:38:34.929Z,63.53
2023-04-08T22:41:02.322Z,64.02
2023-04-08T22:43:29.729Z,63.51
2023-04-08T22:45:57.412Z,63.77
2023-04-08T22:48:24.809Z,63.70
2023-04-08T22:50:52.623Z,63.39
2023-04-08T22:53:21.268Z,63.55
2023-04-08T22:55:49.070Z,63.90
2023-04-08T22:58:16.457Z,63.82
2023-04-08T23:00:44.065Z,63.76
2023-04-08T23:03:11.596Z,63.32
2023-04-08T23:05:39.050Z,63.01
2023-04-08T23:08:06.881Z,63.54
2023-04-08T23:10:34.275Z,63.70
2023-04-08T23:13:01.642Z,64.13
2023-04-08T23:15:29.314Z,63.78
2023-04-08T23:17:56.777Z,63.56
2023-04-08T23:20:24.272Z,63.67
2023-04-08T23:22:52.003Z,64.04
2023-04-08T23:25:19.396Z,64.12
2023-04-08T23:27:46.751Z,64.04
2023-04-08T23:30:14.462Z,64.05
2023-04-08T23:32:41.980Z,64.76
2023-04-08T23:35:09.634Z,64.74
2023-04-08T23:37:37.278Z,64.47
2023-04-08T23:40:05.127Z,64.85
2023-04-08T23:42:32.550Z,64.54
2023-04-08T23:45:00.262Z,64.45
2023-04-08T23:47:27.722Z,64.67
2023-04-08T23:49:55.324Z,64.67
2023-04-08T23:52:23.010Z,64.99
2023-04-08T23:54:51.029Z,64.77
2023-04-08T23:57:20.393Z,65.03
2023-04-08T23:59:48.124Z,64.70
